Time;durP1;ratioP1;P1;durP2;ratioP2;P2;SDS_P1;SDS_P2;PMS_P1;PMS_P2;Temp;Humidity;BMP_temperature;BMP_pressure;BME280_temperature;BME280_humidity;BME280_pressure;Samples;Min_cycle;Max_cycle;Signal;HPM_P1;HPM_P2
2022/01/27 00:04:18;;;;;;;26.67;14.55;;;5.70;99.90;;;;;;4961344;28;20713;-53
2022/01/27 00:06:44;;;;;;;35.58;15.40;;;;;;;;;;4961365;28;20059;-54
2022/01/27 00:11:58;;;;;;;37.08;15.20;;;5.90;99.90;;;;;;4961229;28;20225;-51
2022/01/27 00:14:26;;;;;;;35.30;15.65;;;5.80;99.90;;;;;;4994114;28;20582;-52
2022/01/27 00:16:58;;;;;;;36.00;15.73;;;;;;;;;;5000140;28;20057;-54
2022/01/27 00:19:24;;;;;;;32.05;16.45;;;;;;;;;;5000881;28;20050;-57
2022/01/27 00:21:50;;;;;;;33.33;16.17;;;5.80;99.90;;;;;;4986141;28;20045;-53
2022/01/27 00:24:16;;;;;;;37.20;16.73;;;5.70;99.90;;;;;;4999952;28;20188;-52
2022/01/27 00:26:42;;;;;;;29.55;15.98;;;;;;;;;;5000022;28;20038;-50
2022/01/27 00:29:11;;;;;;;32.10;15.73;;;5.80;99.90;;;;;;5002137;28;20582;-54
2022/01/27 00:31:37;;;;;;;29.13;14.80;;;;;;;;;;5000930;28;20046;-53
2022/01/27 00:34:04;;;;;;;35.67;15.90;;;;;;;;;;5000502;28;20133;-51
2022/01/27 00:36:33;;;;;;;34.80;16.55;;;5.70;99.90;;;;;;4999347;28;20041;-52
2022/01/27 00:38:59;;;;;;;34.58;16.20;;;;;;;;;;5000713;28;20132;-52
2022/01/27 00:41:25;;;;;;;34.63;16.58;;;;;;;;;;5041218;28;21297;-51
2022/01/27 00:43:51;;;;;;;33.67;15.10;;;;;;;;;;5064054;28;20036;-52
2022/01/27 00:46:19;;;;;;;39.08;17.45;;;5.70;99.90;;;;;;5061916;28;20401;-53
2022/01/27 00:48:46;;;;;;;30.10;14.23;;;5.70;99.90;;;;;;5063106;28;20131;-53
2022/01/27 00:51:20;;;;;;;34.05;15.88;;;;;;;;;;5062781;28;20040;-51
2022/01/27 00:53:54;;;;;;;32.35;16.38;;;5.80;99.90;;;;;;5062751;28;20051;-54
2022/01/27 00:56:27;;;;;;;31.25;14.95;;;;;;;;;;5061702;28;20040;-58
2022/01/27 00:59:20;;;;;;;37.38;16.30;;;;;;;;;;5061724;28;20080;-53
2022/01/27 01:01:53;;;;;;;32.58;14.27;;;5.60;99.90;;;;;;5059588;28;20063;-48
2022/01/27 01:04:27;;;;;;;28.55;15.57;;;5.60;99.90;;;;;;5058779;28;20131;-51
2022/01/27 01:06:53;;;;;;;30.70;16.50;;;;;;;;;;5061361;28;20039;-52
2022/01/27 01:33:08;;;;;;;30.90;17.70;;;;;;;;;;4934900;29;20043;-54
2022/01/27 01:35:51;;;;;;;33.83;18.27;;;;;;;;;;4929270;29;20106;-53
2022/01/27 01:38:20;;;;;;;29.35;17.63;;;5.30;99.90;;;;;;4931871;29;20066;-53
2022/01/27 01:40:50;;;;;;;36.78;16.73;;;5.40;99.90;;;;;;4927602;29;20691;-52
2022/01/27 01:43:19;;;;;;;36.17;18.33;;;5.40;99.90;;;;;;4923374;29;20044;-53
2022/01/27 01:45:46;;;;;;;33.67;17.85;;;5.30;99.90;;;;;;4936210;29;20046;-53
2022/01/27 01:48:12;;;;;;;34.13;18.65;;;;;;;;;;4940018;29;20894;-53
2022/01/27 01:50:40;;;;;;;33.88;18.23;;;5.20;99.90;;;;;;4945639;28;20050;-54
2022/01/27 01:53:06;;;;;;;37.25;19.05;;;;;;;;;;4973421;28;20511;-53
2022/01/27 01:55:32;;;;;;;36.13;18.77;;;5.30;99.90;;;;;;4962111;28;20660;-51
2022/01/27 01:57:59;;;;;;;32.72;19.00;;;5.30;99.90;;;;;;4970089;28;20050;-52
2022/01/27 02:00:26;;;;;;;41.53;19.60;;;5.20;99.90;;;;;;4973016;28;20526;-53
2022/01/27 02:02:53;;;;;;;37.22;18.60;;;;;;;;;;4965359;28;20075;-52
2022/01/27 02:05:23;;;;;;;33.63;18.90;;;5.30;99.90;;;;;;5036846;28;20115;-54
2022/01/27 02:08:14;;;;;;;34.63;19.90;;;5.00;99.90;;;;;;5060381;28;20075;-54
2022/01/27 02:18:40;;;;;;;31.88;18.83;;;5.30;99.90;;;;;;5060757;28;20673;-52
2022/01/27 02:21:06;;;;;;;39.50;20.73;;;;;;;;;;5060492;28;20140;-53
2022/01/27 02:23:32;;;;;;;39.78;20.13;;;;;;;;;;5061319;28;20051;-53
2022/01/27 02:25:58;;;;;;;36.53;21.27;;;;;;;;;;5061247;28;20071;-54
2022/01/27 02:28:27;;;;;;;36.67;20.48;;;5.40;99.90;;;;;;5060607;28;20464;-51
2022/01/27 02:30:54;;;;;;;36.63;19.95;;;5.50;99.90;;;;;;5059267;28;20131;-52
2022/01/27 02:33:31;;;;;;;36.53;20.25;;;5.30;99.90;;;;;;5059986;28;20033;-53
2022/01/27 02:35:57;;;;;;;32.65;19.10;;;;;;;;;;5061253;28;20032;-54
2022/01/27 02:38:23;;;;;;;36.58;21.75;;;;;;;;;;5059794;28;20060;-52
2022/01/27 02:40:57;;;;;;;37.83;19.75;;;5.50;99.90;;;;;;5059561;28;20374;-52
2022/01/27 02:43:23;;;;;;;37.15;20.27;;;;;;;;;;5060444;28;20172;-52
2022/01/27 02:46:03;;;;;;;33.40;18.95;;;5.30;99.90;;;;;;5060785;28;20036;-49
2022/01/27 02:48:29;;;;;;;36.95;21.92;;;;;;;;;;5058415;28;20048;-54
2022/01/27 02:50:56;;;;;;;37.88;21.45;;;;;;;;;;5060334;28;20382;-53
2022/01/27 02:53:22;;;;;;;39.15;22.38;;;;;;;;;;5061733;28;20049;-53
2022/01/27 02:55:48;;;;;;;39.90;22.10;;;;;;;;;;5060422;28;20121;-49
2022/01/27 02:58:15;;;;;;;45.33;22.23;;;;;;;;;;5060571;28;20059;-54
2022/01/27 03:00:43;;;;;;;40.33;22.75;;;5.40;99.90;;;;;;5060826;28;20715;-51
2022/01/27 03:03:09;;;;;;;43.95;22.98;;;;;;;;;;5060883;28;20045;-52
2022/01/27 03:05:35;;;;;;;38.10;22.30;;;;;;;;;;5061636;28;20416;-53
2022/01/27 03:08:02;;;;;;;37.22;21.50;;;5.40;99.90;;;;;;5060716;28;20429;-51
2022/01/27 03:10:32;;;;;;;39.38;21.65;;;5.50;99.90;;;;;;5061025;28;20538;-49
2022/01/27 03:13:00;;;;;;;39.92;22.98;;;;;;;;;;5061916;28;20076;-49
2022/01/27 03:15:28;;;;;;;40.58;21.63;;;5.60;99.90;;;;;;5062469;28;20041;-51
2022/01/27 03:17:54;;;;;;;38.85;22.33;;;5.40;99.90;;;;;;5061960;28;20048;-53
2022/01/27 03:20:19;;;;;;;44.22;21.85;;;5.50;99.90;;;;;;5064134;28;20040;-52
2022/01/27 03:22:45;;;;;;;33.38;20.75;;;5.40;99.90;;;;;;5064865;28;20040;-52
2022/01/27 03:25:13;;;;;;;36.65;18.27;;;5.50;99.90;;;;;;5064006;28;20453;-49
2022/01/27 03:27:45;;;;;;;35.80;20.02;;;5.60;99.90;;;;;;5063175;28;20131;-53
2022/01/27 03:30:11;;;;;;;45.97;21.02;;;5.60;99.90;;;;;;5063620;28;20408;-51
2022/01/27 03:32:39;;;;;;;36.15;20.27;;;7.00;99.90;;;;;;5064472;28;20048;-49
2022/01/27 03:35:06;;;;;;;39.63;19.70;;;5.70;99.90;;;;;;5063681;28;20032;-54
2022/01/27 03:37:32;;;;;;;41.03;20.27;;;;;;;;;;5063797;28;20890;-54
2022/01/27 03:39:58;;;;;;;35.83;20.13;;;;;;;;;;5063659;28;20766;-57
2022/01/27 03:42:28;;;;;;;34.47;19.40;;;5.70;99.90;;;;;;5061541;28;20060;-57
2022/01/27 03:44:54;;;;;;;38.55;21.58;;;;;;;;;;5063623;28;20090;-57
2022/01/27 03:47:20;;;;;;;39.75;20.55;;;;;;;;;;5063002;28;20411;-57
2022/01/27 03:49:48;;;;;;;38.50;19.73;;;5.60;99.90;;;;;;5062708;28;20037;-57
2022/01/27 03:52:14;;;;;;;41.40;20.55;;;;;;;;;;5063627;28;20036;-57
2022/01/27 03:54:40;;;;;;;35.72;20.42;;;;;;;;;;5063662;28;20028;-57
2022/01/27 03:57:06;;;;;;;40.95;20.02;;;;;;;;;;5062807;28;20053;-57
2022/01/27 03:59:32;;;;;;;47.10;20.40;;;;;;;;;;5063424;28;20056;-57
2022/01/27 04:01:58;;;;;;;40.63;20.80;;;;;;;;;;5063601;28;20083;-57
2022/01/27 04:04:26;;;;;;;47.08;20.60;;;5.70;99.90;;;;;;5063087;28;20032;-57
2022/01/27 04:06:53;;;;;;;39.70;19.75;;;;;;;;;;5063484;28;20033;-57
2022/01/27 04:09:19;;;;;;;39.22;20.83;;;;;;;;;;5063147;28;20041;-57
2022/01/27 04:11:47;;;;;;;44.25;21.40;;;;;;;;;;5062194;28;20033;-57
2022/01/27 04:14:14;;;;;;;41.05;18.02;;;5.90;99.90;;;;;;5062182;28;20059;-57
2022/01/27 04:16:41;;;;;;;36.45;20.85;;;;;;;;;;5062280;28;20103;-57
2022/01/27 04:19:07;;;;;;;37.72;18.85;;;;;;;;;;5064820;28;20052;-57
2022/01/27 04:21:34;;;;;;;33.85;17.45;;;5.70;99.90;;;;;;5062927;28;20500;-57
2022/01/27 04:24:02;;;;;;;42.15;17.58;;;5.70;99.90;;;;;;5064592;28;20036;-57
2022/01/27 04:26:40;;;;;;;39.38;18.35;;;5.90;99.90;;;;;;5063482;28;20051;-57
2022/01/27 04:29:06;;;;;;;29.77;15.30;;;5.80;99.90;;;;;;5064348;28;20048;-57
2022/01/27 04:31:33;;;;;;;37.92;17.17;;;;;;;;;;5062976;28;20037;-57
2022/01/27 04:33:59;;;;;;;38.75;20.58;;;;;;;;;;5063437;28;20048;-57
2022/01/27 04:36:32;;;;;;;34.75;15.95;;;5.80;99.90;;;;;;5063083;28;20067;-57
2022/01/27 04:41:37;;;;;;;36.35;17.27;;;;;;;;;;5061488;28;20063;-57
2022/01/27 04:49:16;;;;;;;36.55;16.27;;;5.70;99.90;;;;;;5062188;28;20528;-57
2022/01/27 04:51:43;;;;;;;36.42;17.15;;;;;;;;;;5061532;28;20123;-57
2022/01/27 04:54:19;;;;;;;38.55;17.15;;;;;;;;;;5062351;28;20409;-58
2022/01/27 04:56:45;;;;;;;37.65;16.92;;;;;;;;;;5061946;28;20050;-57
2022/01/27 04:59:34;;;;;;;32.20;14.32;;;5.90;99.90;;;;;;5060412;28;20513;-57
2022/01/27 05:02:06;;;;;;;34.88;16.95;;;5.90;99.90;;;;;;5061383;28;20048;-57
2022/01/27 05:04:41;;;;;;;35.78;15.82;;;;;;;;;;5062059;28;20142;-57
2022/01/27 05:07:09;;;;;;;37.50;16.52;;;5.70;99.90;;;;;;5061516;28;20060;-58
2022/01/27 05:09:36;;;;;;;35.13;16.88;;;;;;;;;;5060413;28;20098;-57
2022/01/27 05:12:14;;;;;;;41.88;16.05;;;5.90;99.90;;;;;;5061495;28;20041;-57
2022/01/27 05:14:40;;;;;;;33.60;16.85;;;;;;;;;;5061962;28;20044;-57
2022/01/27 05:17:06;;;;;;;41.08;16.33;;;;;;;;;;5062053;28;20102;-57
2022/01/27 05:19:32;;;;;;;35.75;16.75;;;;;;;;;;5062246;28;20049;-58
2022/01/27 05:21:58;;;;;;;44.35;18.13;;;;;;;;;;5061537;28;20055;-57
2022/01/27 05:24:24;;;;;;;33.85;15.30;;;;;;;;;;5062078;28;20041;-57
2022/01/27 05:26:51;;;;;;;43.22;17.98;;;;;;;;;;5062123;28;20032;-57
2022/01/27 05:29:16;;;;;;;46.55;17.38;;;5.80;99.90;;;;;;5061688;28;20079;-58
2022/01/27 05:31:43;;;;;;;41.13;18.30;;;;;;;;;;5060871;28;20079;-57
2022/01/27 05:34:09;;;;;;;35.40;17.20;;;;;;;;;;5061420;28;20048;-58
2022/01/27 05:36:35;;;;;;;41.35;16.65;;;5.80;99.90;;;;;;5060718;28;20086;-56
2022/01/27 05:39:03;;;;;;;41.25;16.83;;;6.00;99.90;;;;;;5061513;28;20033;-56
2022/01/27 05:41:29;;;;;;;37.88;17.48;;;;;;;;;;5060595;28;20044;-57
2022/01/27 05:43:56;;;;;;;44.92;18.40;;;5.70;99.90;;;;;;5059359;28;20037;-57
2022/01/27 05:46:22;;;;;;;38.78;16.63;;;;;;;;;;5061359;28;20086;-57
2022/01/27 05:48:48;;;;;;;49.75;16.88;;;;;;;;;;5061240;28;20474;-58
2022/01/27 05:51:15;;;;;;;45.30;17.52;;;5.70;99.90;;;;;;5061687;28;20040;-57
2022/01/27 05:53:44;;;;;;;47.55;18.20;;;5.80;99.90;;;;;;5059326;28;20512;-57
2022/01/27 05:56:09;;;;;;;40.72;17.15;;;5.80;99.90;;;;;;5059063;28;20057;-58
2022/01/27 05:58:37;;;;;;;46.28;17.98;;;5.80;99.90;;;;;;5062251;28;20554;-57
2022/01/27 06:01:03;;;;;;;44.40;17.73;;;5.70;99.90;;;;;;5062080;28;20040;-58
2022/01/27 06:03:29;;;;;;;49.40;18.48;;;;;;;;;;5062704;28;20539;-58
2022/01/27 06:05:55;;;;;;;42.75;17.65;;;5.70;99.90;;;;;;5061920;28;20033;-58
2022/01/27 06:08:21;;;;;;;43.13;19.00;;;5.90;99.90;;;;;;5061032;28;20078;-57
2022/01/27 06:10:47;;;;;;;43.60;18.35;;;;;;;;;;5057964;28;20037;-57
2022/01/27 06:13:13;;;;;;;40.78;17.75;;;;;;;;;;5061621;28;20044;-58
2022/01/27 06:15:40;;;;;;;46.95;18.55;;;6.00;99.90;;;;;;5061431;28;20040;-57
2022/01/27 06:18:07;;;;;;;46.90;18.88;;;;;;;;;;5058774;28;20067;-55
2022/01/27 06:20:33;;;;;;;41.83;17.77;;;;;;;;;;5060035;28;20523;-57
2022/01/27 06:22:59;;;;;;;39.08;17.67;;;5.90;99.90;;;;;;5062113;28;20064;-57
2022/01/27 06:25:26;;;;;;;41.05;17.17;;;5.80;99.90;;;;;;5058528;28;20067;-56
2022/01/27 06:27:53;;;;;;;41.53;17.80;;;6.00;99.90;;;;;;5059081;28;20044;-56
2022/01/27 06:30:19;;;;;;;49.85;17.92;;;5.90;99.90;;;;;;5060980;28;20052;-56
2022/01/27 06:32:45;;;;;;;38.85;17.50;;;5.90;99.90;;;;;;5059969;28;20040;-56
2022/01/27 06:35:11;;;;;;;42.47;16.95;;;;;;;;;;5060250;28;20390;-56
2022/01/27 06:37:40;;;;;;;41.72;16.80;;;6.00;99.90;;;;;;5059743;28;20040;-56
2022/01/27 06:40:06;;;;;;;39.28;16.30;;;6.00;99.90;;;;;;5060603;28;20079;-57
2022/01/27 06:42:32;;;;;;;39.20;17.50;;;6.10;99.90;;;;;;5059481;28;20083;-58
2022/01/27 06:44:58;;;;;;;39.75;16.45;;;6.00;99.90;;;;;;5059302;28;20060;-57
2022/01/27 06:47:24;;;;;;;40.10;17.55;;;;;;;;;;5058472;28;20036;-57
2022/01/27 06:49:50;;;;;;;37.75;16.65;;;6.10;99.90;;;;;;5061090;28;20045;-57
2022/01/27 06:52:20;;;;;;;40.72;16.42;;;6.10;99.90;;;;;;5060420;28;20502;-55
2022/01/27 06:54:48;;;;;;;41.92;17.10;;;6.00;99.90;;;;;;5062835;28;20123;-56
2022/01/27 06:57:14;;;;;;;40.63;17.52;;;;;;;;;;5063689;28;20048;-58
2022/01/27 06:59:42;;;;;;;45.00;17.00;;;6.00;99.90;;;;;;5063126;28;20501;-56
2022/01/27 07:02:08;;;;;;;37.67;16.77;;;;;;;;;;5063294;28;20110;-56
2022/01/27 07:04:34;;;;;;;48.53;17.63;;;6.10;99.90;;;;;;5065423;28;20044;-57
2022/01/27 07:07:02;;;;;;;37.40;15.43;;;5.90;99.90;;;;;;5063706;28;20427;-56
2022/01/27 07:09:28;;;;;;;39.88;15.73;;;;;;;;;;5064775;28;20033;-56
2022/01/27 07:11:54;;;;;;;32.45;13.50;;;;;;;;;;5065351;28;20644;-57
2022/01/27 07:14:20;;;;;;;30.95;14.88;;;6.10;99.90;;;;;;5064215;28;20041;-57
2022/01/27 07:16:45;;;;;;;31.85;14.98;;;6.20;99.90;;;;;;5063458;28;20102;-56
2022/01/27 07:19:11;;;;;;;31.70;15.23;;;6.10;99.90;;;;;;5065405;28;20139;-57
2022/01/27 07:21:39;;;;;;;46.03;15.35;;;6.20;99.90;;;;;;5064248;28;20039;-57
2022/01/27 07:24:05;;;;;;;39.95;16.25;;;6.10;99.90;;;;;;5066406;28;20033;-57
2022/01/27 07:26:31;;;;;;;33.95;15.98;;;6.30;99.90;;;;;;5064898;28;20130;-57
2022/01/27 07:29:00;;;;;;;37.40;14.85;;;6.20;99.90;;;;;;5065215;28;20123;-57
2022/01/27 07:31:25;;;;;;;39.72;15.30;;;6.20;99.90;;;;;;5063434;28;20487;-57
2022/01/27 07:33:52;;;;;;;33.83;13.60;;;;;;;;;;5063264;28;20037;-58
2022/01/27 07:36:20;;;;;;;41.17;16.08;;;6.20;99.90;;;;;;5062156;28;20418;-57
2022/01/27 07:38:47;;;;;;;36.22;14.05;;;6.30;99.90;;;;;;5063402;28;20037;-57
2022/01/27 07:41:14;;;;;;;37.47;14.88;;;;;;;;;;5062324;28;20044;-57
2022/01/27 07:43:41;;;;;;;39.78;15.43;;;6.30;99.90;;;;;;5064548;28;20044;-59
2022/01/27 07:46:08;;;;;;;41.38;16.05;;;6.50;99.90;;;;;;5061108;28;20161;-57
2022/01/27 07:48:34;;;;;;;40.90;15.32;;;;;;;;;;5062113;28;20040;-57
2022/01/27 07:51:02;;;;;;;43.53;15.90;;;6.30;99.90;;;;;;5062680;28;20040;-58
2022/01/27 07:53:28;;;;;;;40.35;14.25;;;6.50;99.90;;;;;;5062829;28;20033;-58
2022/01/27 07:55:54;;;;;;;37.83;13.63;;;;;;;;;;5063544;28;20037;-58
2022/01/27 07:58:20;;;;;;;38.20;14.52;;;6.50;99.90;;;;;;5062254;28;20032;-57
2022/01/27 08:00:46;;;;;;;49.45;13.77;;;6.50;99.90;;;;;;5062763;28;20079;-57
2022/01/27 08:03:11;;;;;;;39.45;14.05;;;6.50;99.90;;;;;;5062657;28;20047;-58
2022/01/27 08:05:37;;;;;;;39.90;15.27;;;6.70;99.90;;;;;;5061867;28;20127;-58
2022/01/27 08:08:03;;;;;;;46.80;13.60;;;;;;;;;;5062932;28;20393;-58
2022/01/27 08:10:36;;;;;;;39.88;12.80;;;6.70;99.90;;;;;;5062861;28;20167;-58
2022/01/27 08:13:06;;;;;;;36.58;11.88;;;6.70;99.90;;;;;;5062942;28;20044;-58
2022/01/27 08:15:32;;;;;;;30.02;11.15;;;6.70;99.90;;;;;;5061711;28;20587;-58
2022/01/27 08:17:58;;;;;;;33.63;11.32;;;6.80;99.90;;;;;;5062754;28;20110;-58
2022/01/27 08:20:24;;;;;;;40.30;12.60;;;6.80;99.90;;;;;;5062352;28;20044;-57
2022/01/27 08:22:52;;;;;;;33.90;10.50;;;6.90;99.90;;;;;;5064632;28;20493;-58
2022/01/27 08:25:20;;;;;;;37.47;11.05;;;6.90;99.90;;;;;;5063986;28;20047;-58
2022/01/27 08:27:48;;;;;;;31.23;10.43;;;6.90;99.90;;;;;;5063578;28;20566;-58
2022/01/27 08:30:17;;;;;;;32.80;10.35;;;7.00;99.90;;;;;;5062437;28;20174;-57
2022/01/27 08:32:56;;;;;;;28.13;9.70;;;7.00;99.90;;;;;;5061392;28;20036;-57
2022/01/27 08:35:25;;;;;;;31.33;9.65;;;6.90;99.90;;;;;;5062008;28;20047;-58
2022/01/27 08:37:52;;;;;;;35.55;8.98;;;7.00;99.90;;;;;;5062856;28;20048;-58
2022/01/27 08:40:18;;;;;;;38.58;10.95;;;7.20;99.90;;;;;;5060676;28;20109;-57
2022/01/27 08:42:44;;;;;;;35.45;9.15;;;7.10;99.90;;;;;;5061592;28;20149;-58
2022/01/27 08:45:13;;;;;;;30.83;10.10;;;7.00;99.90;;;;;;5061454;28;20417;-58
2022/01/27 08:47:39;;;;;;;33.50;9.10;;;7.10;99.90;;;;;;5062228;28;20504;-58
2022/01/27 08:50:07;;;;;;;20.80;8.00;;;7.00;99.90;;;;;;5062334;28;20048;-58
2022/01/27 08:52:33;;;;;;;29.05;8.77;;;7.10;99.90;;;;;;5062522;28;20672;-58
2022/01/27 08:54:59;;;;;;;26.77;9.52;;;7.10;99.90;;;;;;5062759;28;20043;-58
2022/01/27 08:57:25;;;;;;;37.50;9.70;;;7.10;99.90;;;;;;5062195;28;20119;-58
2022/01/27 08:59:53;;;;;;;24.17;7.15;;;7.20;99.90;;;;;;5062758;28;20067;-58
2022/01/27 09:02:20;;;;;;;27.35;8.60;;;7.20;99.90;;;;;;5061365;28;21101;-58
2022/01/27 09:04:46;;;;;;;27.25;7.80;;;7.30;99.90;;;;;;5062951;28;20044;-58
2022/01/27 09:07:15;;;;;;;27.48;7.45;;;7.20;99.90;;;;;;5060986;28;20047;-58
2022/01/27 09:09:42;;;;;;;25.13;7.50;;;7.30;99.90;;;;;;5061053;28;20048;-58
2022/01/27 09:12:09;;;;;;;37.60;9.98;;;7.30;99.90;;;;;;5061454;28;20052;-46
2022/01/27 09:14:35;;;;;;;30.95;7.15;;;7.30;99.90;;;;;;5060645;28;20102;-51
2022/01/27 09:17:01;;;;;;;25.25;6.63;;;7.30;99.90;;;;;;5060779;28;20516;-48
2022/01/27 09:19:28;;;;;;;24.90;7.40;;;7.30;99.90;;;;;;5061452;28;20378;-51
2022/01/27 09:21:54;;;;;;;32.20;6.88;;;7.40;99.90;;;;;;5060677;28;20044;-50
2022/01/27 09:24:37;;;;;;;26.20;6.45;;;7.50;99.90;;;;;;5060852;28;20555;-48
2022/01/27 09:27:02;;;;;;;22.27;6.53;;;7.60;99.90;;;;;;5060997;28;20128;-50
2022/01/27 09:29:28;;;;;;;27.98;7.93;;;7.50;99.90;;;;;;5059605;28;20115;-50
2022/01/27 09:31:55;;;;;;;26.65;7.00;;;7.60;99.90;;;;;;5062167;28;20044;-52
2022/01/27 09:34:23;;;;;;;26.83;7.43;;;7.60;99.90;;;;;;5061445;28;20086;-47
2022/01/27 09:36:49;;;;;;;27.25;8.10;;;7.60;99.90;;;;;;5061924;28;20036;-46
2022/01/27 09:39:16;;;;;;;26.85;5.57;;;7.60;99.90;;;;;;5061040;28;20045;-49
2022/01/27 09:41:42;;;;;;;28.88;6.30;;;8.60;99.90;;;;;;5062320;28;20037;-46
2022/01/27 09:44:12;;;;;;;27.05;6.70;;;7.60;99.90;;;;;;5061007;28;20067;-49
2022/01/27 09:46:40;;;;;;;26.95;6.53;;;7.60;99.90;;;;;;5061501;28;20059;-47
2022/01/27 09:49:12;;;;;;;27.73;6.85;;;7.50;99.90;;;;;;5061889;28;20040;-49
2022/01/27 09:51:41;;;;;;;21.83;5.50;;;7.70;99.90;;;;;;5060783;28;20059;-49
2022/01/27 09:54:10;;;;;;;29.45;6.57;;;7.60;99.90;;;;;;5062857;28;20040;-48
2022/01/27 09:56:36;;;;;;;28.70;7.03;;;7.70;99.90;;;;;;5061400;28;20434;-48
2022/01/27 09:59:03;;;;;;;25.27;6.38;;;7.60;99.90;;;;;;5060599;28;20124;-48
2022/01/27 10:01:29;;;;;;;30.20;6.78;;;7.80;99.90;;;;;;5061767;28;20028;-48
2022/01/27 10:03:56;;;;;;;24.75;5.47;;;7.70;99.90;;;;;;5061231;28;20040;-52
2022/01/27 10:06:30;;;;;;;26.55;5.40;;;7.70;99.90;;;;;;5062743;28;20058;-51
2022/01/27 10:09:28;;;;;;;33.63;6.03;;;7.70;99.90;;;;;;5061390;28;20040;-48
2022/01/27 10:12:00;;;;;;;50.40;9.63;;;7.80;99.90;;;;;;5059709;28;20032;-48
2022/01/27 10:14:28;;;;;;;;;;;7.60;99.90;;;;;;5060806;28;20032;-47
2022/01/27 10:16:56;;;;;;;29.05;7.45;;;7.70;99.90;;;;;;5060106;28;19931;-51
2022/01/27 10:19:23;;;;;;;33.53;7.55;;;7.70;99.90;;;;;;5059066;28;20058;-47
2022/01/27 10:21:57;;;;;;;30.40;6.30;;;7.90;99.90;;;;;;5061636;28;20037;-51
2022/01/27 10:24:28;;;;;;;54.78;11.20;;;7.90;99.90;;;;;;5059442;28;20048;-50
2022/01/27 10:27:19;;;;;;;34.60;8.50;;;7.70;99.90;;;;;;5060769;28;20043;-49
2022/01/27 10:30:05;;;;;;;30.08;7.05;;;7.80;99.90;;;;;;5063427;28;20132;-49
2022/01/27 10:32:47;;;;;;;32.03;9.13;;;8.40;99.90;;;;;;5062778;28;20624;-52
2022/01/27 10:35:15;;;;;;;33.88;7.47;;;8.00;99.90;;;;;;5062686;28;20059;-50
2022/01/27 10:38:01;;;;;;;24.70;5.60;;;8.00;99.90;;;;;;5064046;28;20076;-47
2022/01/27 10:40:34;;;;;;;29.60;7.05;;;8.20;99.90;;;;;;5064265;28;20058;-49
2022/01/27 10:43:08;;;;;;;21.17;5.72;;;8.20;99.90;;;;;;5065278;28;20178;-50
2022/01/27 10:45:36;;;;;;;20.95;5.68;;;8.30;99.90;;;;;;5062507;28;20036;-48
2022/01/27 10:48:26;;;;;;;27.23;6.00;;;8.30;99.90;;;;;;5063720;28;20516;-49
2022/01/27 10:51:02;;;;;;;22.52;5.85;;;8.40;99.90;;;;;;5064967;28;20501;-49
2022/01/27 10:54:05;;;;;;;28.00;7.70;;;8.30;99.90;;;;;;5063385;28;20348;-51
2022/01/27 10:56:36;;;;;;;27.88;6.07;;;8.50;99.90;;;;;;5063986;28;20610;-50
2022/01/27 10:59:05;;;;;;;19.43;4.47;;;8.30;99.90;;;;;;5064862;28;20131;-46
2022/01/27 11:01:39;;;;;;;28.52;6.57;;;9.50;99.90;;;;;;5064240;28;20032;-46
2022/01/27 11:04:07;;;;;;;20.13;5.57;;;8.90;99.90;;;;;;5066316;28;20170;-46
2022/01/27 11:06:34;;;;;;;24.83;4.63;;;8.40;99.90;;;;;;5065114;28;20028;-49
2022/01/27 11:09:10;;;;;;;22.42;4.10;;;8.30;99.90;;;;;;5064976;28;20504;-49
2022/01/27 11:11:40;;;;;;;24.13;5.00;;;8.40;99.90;;;;;;5066335;28;20135;-50
2022/01/27 11:14:08;;;;;;;33.05;6.68;;;9.20;99.90;;;;;;5065861;28;20040;-50
2022/01/27 11:16:39;;;;;;;25.98;5.68;;;9.30;99.90;;;;;;5065564;28;20596;-49
2022/01/27 11:19:18;;;;;;;19.17;4.10;;;8.50;99.90;;;;;;5065789;28;20116;-52
2022/01/27 11:21:50;;;;;;;27.40;5.25;;;8.70;99.90;;;;;;5063815;28;20055;-48
2022/01/27 11:24:29;;;;;;;22.38;4.30;;;8.60;99.90;;;;;;5065146;28;20033;-46
2022/01/27 11:27:00;;;;;;;22.00;4.03;;;9.30;99.90;;;;;;5061821;28;20043;-46
2022/01/27 11:29:28;;;;;;;21.45;4.50;;;9.80;99.90;;;;;;5062500;28;20059;-50
2022/01/27 11:32:34;;;;;;;24.20;6.28;;;8.70;99.90;;;;;;5062371;28;20071;-48
2022/01/27 11:35:00;;;;;;;26.15;5.28;;;8.50;99.90;;;;;;5014351;28;20050;-47
2022/01/27 11:37:37;;;;;;;17.58;4.63;;;8.50;99.90;;;;;;5008813;28;20053;-49
2022/01/27 11:40:11;;;;;;;28.55;5.63;;;9.20;99.90;;;;;;5013389;28;20095;-47
2022/01/27 11:42:57;;;;;;;29.63;6.20;;;8.70;99.90;;;;;;5008860;28;20263;-49
2022/01/27 11:45:28;;;;;;;25.92;4.50;;;8.70;99.90;;;;;;4930461;29;20458;-46
2022/01/27 11:48:02;;;;;;;21.50;5.13;;;8.60;99.90;;;;;;4928534;29;20052;-49
2022/01/27 11:50:34;;;;;;;19.70;4.50;;;8.70;99.90;;;;;;4938660;29;20047;-50
2022/01/27 11:53:01;;;;;;;;;;;8.70;99.90;;;;;;4931112;29;20097;-48
2022/01/27 11:55:26;;;;;;;26.35;5.28;;;8.80;99.90;;;;;;4929682;29;19923;-49
2022/01/27 11:57:59;;;;;;;24.35;5.32;;;8.70;99.90;;;;;;4936621;29;20058;-51
2022/01/27 12:00:27;;;;;;;30.05;4.80;;;8.70;99.90;;;;;;4927397;29;20065;-49
2022/01/27 12:03:02;;;;;;;26.67;4.75;;;9.50;99.90;;;;;;4932647;29;20127;-47
2022/01/27 12:05:39;;;;;;;31.20;5.55;;;8.80;99.90;;;;;;4933154;29;20099;-49
2022/01/27 12:08:34;;;;;;;24.83;4.15;;;8.70;99.90;;;;;;4930814;29;20071;-47
2022/01/27 12:11:02;;;;;;;20.20;5.22;;;9.30;99.90;;;;;;4900131;28;20103;-50
2022/01/27 12:13:55;;;;;;;33.03;5.05;;;8.70;99.90;;;;;;4960670;28;20054;-46
2022/01/27 12:19:00;;;;;;;18.33;4.00;;;8.70;99.90;;;;;;4889555;29;20151;-50
2022/01/27 12:21:37;;;;;;;20.70;4.57;;;8.60;99.90;;;;;;4903899;29;20123;-51
2022/01/27 12:26:47;;;;;;;26.45;4.47;;;8.70;99.90;;;;;;4922874;29;20068;-51
2022/01/27 12:29:36;;;;;;;25.20;5.30;;;8.70;99.90;;;;;;4917964;29;20288;-49
2022/01/27 12:32:04;;;;;;;24.50;3.60;;;8.70;99.90;;;;;;4910343;29;20141;-48
2022/01/27 12:34:32;;;;;;;21.40;3.95;;;8.60;99.90;;;;;;4919387;29;20126;-49
2022/01/27 12:37:37;;;;;;;24.92;4.35;;;8.60;99.90;;;;;;4907760;29;20119;-51
2022/01/27 12:40:08;;;;;;;23.15;3.95;;;8.60;99.90;;;;;;4921386;29;20047;-51
2022/01/27 12:42:37;;;;;;;19.67;4.65;;;8.80;99.90;;;;;;4912398;29;20055;-52
2022/01/27 12:45:13;;;;;;;27.20;3.80;;;9.90;99.90;;;;;;4919780;29;20513;-49
2022/01/27 12:47:44;;;;;;;23.75;3.80;;;8.70;99.90;;;;;;4957425;28;20426;-48
2022/01/27 12:50:13;;;;;;;31.48;5.65;;;9.30;99.90;;;;;;4990564;28;20402;-49
2022/01/27 12:52:43;;;;;;;24.35;4.57;;;9.60;99.90;;;;;;5001347;28;20488;-51
2022/01/27 12:55:14;;;;;;;22.75;4.70;;;10.60;99.90;;;;;;5060983;28;20155;-48
2022/01/27 12:57:40;;;;;;;23.98;4.03;;;8.70;99.90;;;;;;5060962;28;20078;-48
2022/01/27 13:00:10;;;;;;;24.08;3.95;;;10.10;99.90;;;;;;5062123;28;20044;-53
2022/01/27 13:02:37;;;;;;;27.30;4.45;;;8.70;99.90;;;;;;5061188;28;20150;-49
2022/01/27 13:05:04;;;;;;;26.33;3.97;;;9.50;99.90;;;;;;5061115;28;20123;-51
2022/01/27 13:07:30;;;;;;;16.85;3.63;;;8.80;99.90;;;;;;5061243;28;20052;-50
2022/01/27 13:10:03;;;;;;;26.38;4.00;;;8.80;99.90;;;;;;5061474;28;20055;-51
2022/01/27 13:12:39;;;;;;;19.77;3.17;;;8.90;99.90;;;;;;5060006;28;20039;-51
2022/01/27 13:15:12;;;;;;;21.40;3.78;;;8.80;99.90;;;;;;5061197;28;20064;-49
2022/01/27 13:17:46;;;;;;;20.73;4.70;;;8.80;99.90;;;;;;5059833;28;20052;-52
2022/01/27 13:20:44;;;;;;;21.60;3.25;;;8.80;99.90;;;;;;5061845;28;20568;-48
2022/01/27 13:23:27;;;;;;;20.10;4.85;;;8.60;99.90;;;;;;5061588;28;20619;-50
2022/01/27 13:25:58;;;;;;;26.60;4.78;;;9.40;99.90;;;;;;5059898;28;20050;-51
2022/01/27 13:28:33;;;;;;;25.27;4.30;;;8.70;99.90;;;;;;5059041;28;20044;-49
2022/01/27 13:31:04;;;;;;;26.27;3.92;;;8.80;99.90;;;;;;5062118;28;20099;-46
2022/01/27 13:33:36;;;;;;;20.98;3.63;;;8.60;99.90;;;;;;5062622;28;20043;-49
2022/01/27 13:36:02;;;;;;;24.88;4.53;;;8.70;99.90;;;;;;5061680;28;20036;-46
2022/01/27 13:38:38;;;;;;;31.58;4.75;;;8.70;99.90;;;;;;5062239;28;20546;-47
2022/01/27 13:41:22;;;;;;;20.25;3.10;;;8.60;99.90;;;;;;5059497;28;20521;-53
2022/01/27 13:43:53;;;;;;;20.25;3.03;;;8.80;99.90;;;;;;5062525;28;20442;-53
2022/01/27 13:46:57;;;;;;;20.50;3.72;;;8.70;99.90;;;;;;5062323;28;20091;-48
2022/01/27 13:49:31;;;;;;;23.50;5.47;;;8.60;99.90;;;;;;5060223;28;20036;-49
2022/01/27 13:52:07;;;;;;;30.02;3.80;;;8.70;99.90;;;;;;5061626;28;20464;-48
2022/01/27 13:54:33;;;;;;;22.30;3.83;;;8.50;99.90;;;;;;5059352;28;20123;-51
2022/01/27 13:57:09;;;;;;;24.90;3.60;;;9.30;99.90;;;;;;5061722;28;20119;-52
2022/01/27 13:59:50;;;;;;;24.58;4.53;;;8.60;99.90;;;;;;5061117;28;20037;-50
2022/01/27 14:02:43;;;;;;;21.23;3.15;;;8.40;99.90;;;;;;5057780;28;20739;-47
2022/01/27 14:05:13;;;;;;;;;;;10.30;99.90;;;;;;5059866;28;20078;-51
2022/01/27 14:07:48;;;;;;;22.10;3.63;;;8.40;99.90;;;;;;5060215;28;19924;-49
2022/01/27 14:10:40;;;;;;;27.90;3.78;;;9.40;99.90;;;;;;5060662;28;20048;-49